Time;durP1;ratioP1;P1;durP2;ratioP2;P2;SDS_P1;SDS_P2;PMS_P1;PMS_P2;Temp;Humidity;BMP_temperature;BMP_pressure;BME280_temperature;BME280_humidity;BME280_pressure;Samples;Min_cycle;Max_cycle;Signal;HPM_P1;HPM_P2
2023/12/30 00:02:15;;;;;;;24.20;14.70;;;;;;;2.58;100.00;100848.45;105889;1251;72513;-80
2023/12/30 00:04:42;;;;;;;21.10;15.90;;;;;;;2.60;100.00;100852.20;105903;1256;63835;-77
2023/12/30 00:07:09;;;;;;;25.30;18.00;;;;;;;2.61;100.00;100854.08;105886;1257;71211;-77
2023/12/30 00:09:37;;;;;;;22.40;15.60;;;;;;;2.63;100.00;100854.23;105840;1257;61051;-77
2023/12/30 00:12:04;;;;;;;23.40;14.90;;;;;;;2.64;100.00;100865.06;105964;1251;60447;-76
2023/12/30 00:14:31;;;;;;;18.30;14.40;;;;;;;2.65;100.00;100864.52;105997;1256;73922;-78
2023/12/30 00:16:58;;;;;;;20.80;14.60;;;;;;;2.66;100.00;100872.09;105936;1251;62354;-78
2023/12/30 00:19:25;;;;;;;20.40;15.30;;;;;;;2.67;100.00;100873.45;105967;1251;71427;-79
2023/12/30 00:21:52;;;;;;;19.80;14.90;;;;;;;2.68;100.00;100880.14;105938;1257;60571;-78
2023/12/30 00:24:19;;;;;;;24.60;15.60;;;;;;;2.70;100.00;100878.20;106006;1250;60442;-78
2023/12/30 00:26:47;;;;;;;21.50;15.20;;;;;;;2.73;100.00;100878.69;106087;1251;73170;-77
2023/12/30 00:29:14;;;;;;;21.10;16.00;;;;;;;2.74;100.00;100874.70;106282;1256;64612;-78
2023/12/30 00:31:40;;;;;;;22.70;16.60;;;;;;;2.75;100.00;100874.14;106068;1254;72695;-79
2023/12/30 00:34:09;;;;;;;23.70;17.30;;;;;;;2.75;100.00;100871.71;106159;1256;61049;-77
2023/12/30 00:36:41;;;;;;;22.40;17.10;;;;;;;2.74;100.00;100866.57;106173;1257;60633;-76
2023/12/30 00:39:10;;;;;;;22.20;17.10;;;;;;;2.73;100.00;100868.98;106093;1257;73846;-78
2023/12/30 00:41:37;;;;;;;23.00;15.80;;;;;;;2.73;100.00;100866.91;106082;1251;62627;-79
2023/12/30 00:44:04;;;;;;;21.00;15.70;;;;;;;2.74;100.00;100861.73;106015;1256;72704;-79
2023/12/30 00:46:31;;;;;;;17.70;13.40;;;;;;;2.76;100.00;100860.46;105923;1256;61111;-78
2023/12/30 00:48:58;;;;;;;17.90;13.50;;;;;;;2.78;100.00;100861.11;106050;1257;60463;-79
2023/12/30 00:51:26;;;;;;;19.40;13.70;;;;;;;2.81;100.00;100859.14;106041;1251;73768;-76
2023/12/30 00:53:53;;;;;;;19.70;13.60;;;;;;;2.83;100.00;100856.84;106077;1255;63784;-78
2023/12/30 00:56:21;;;;;;;17.10;13.40;;;;;;;2.86;100.00;100858.50;105999;1257;72570;-80
2023/12/30 00:58:48;;;;;;;16.90;13.20;;;;;;;2.89;100.00;100853.77;105943;1251;61180;-80
2023/12/30 01:01:15;;;;;;;17.70;13.50;;;;;;;2.92;100.00;100855.59;105875;1251;60392;-77
2023/12/30 01:03:43;;;;;;;16.60;12.70;;;;;;;2.94;100.00;100850.21;106049;1255;73840;-79
2023/12/30 01:06:10;;;;;;;21.10;14.20;;;;;;;2.96;100.00;100849.11;106070;1257;63809;-77
2023/12/30 01:08:38;;;;;;;21.00;14.90;;;;;;;2.97;100.00;100846.48;105970;1254;72639;-78
2023/12/30 01:11:05;;;;;;;18.60;14.70;;;;;;;2.97;100.00;100850.30;105991;1251;60444;-79
2023/12/30 01:13:32;;;;;;;18.30;13.90;;;;;;;2.92;100.00;100850.40;105878;1251;60460;-79
2023/12/30 01:15:58;;;;;;;18.30;14.70;;;;;;;2.87;100.00;100854.33;105997;1257;72748;-79
2023/12/30 01:18:25;;;;;;;18.70;13.20;;;;;;;2.80;100.00;100854.16;105970;1250;62692;-78
2023/12/30 01:20:52;;;;;;;18.70;14.10;;;;;;;2.75;100.00;100856.35;105927;1256;71889;-73
2023/12/30 01:23:19;;;;;;;18.50;14.60;;;;;;;2.71;100.00;100855.39;105974;1252;60424;-79
2023/12/30 01:25:46;;;;;;;19.60;14.50;;;;;;;2.68;100.00;100851.67;106095;1256;60435;-78
2023/12/30 01:28:14;;;;;;;22.80;15.60;;;;;;;2.66;100.00;100853.27;106060;1252;73564;-79
2023/12/30 01:30:41;;;;;;;20.40;15.30;;;;;;;2.67;100.00;100850.65;105914;1256;63942;-79
2023/12/30 01:33:08;;;;;;;22.30;15.00;;;;;;;2.68;100.00;100850.65;105945;1264;72730;-79
2023/12/30 01:35:36;;;;;;;20.70;14.50;;;;;;;2.67;100.00;100849.11;106112;1257;60520;-76
2023/12/30 01:38:03;;;;;;;21.40;15.30;;;;;;;2.68;100.00;100847.71;106004;1257;61047;-80
2023/12/30 01:40:33;;;;;;;23.30;15.80;;;;;;;2.67;100.00;100846.70;105993;1257;73740;-77
2023/12/30 01:43:02;;;;;;;20.80;15.70;;;;;;;2.65;100.00;100849.16;105995;1257;64057;-77
2023/12/30 01:45:31;;;;;;;21.00;14.20;;;;;;;2.61;100.00;100853.05;106042;1256;71346;-78
2023/12/30 01:47:58;;;;;;;19.70;13.90;;;;;;;2.58;100.00;100852.25;105986;1255;60909;-78
2023/12/30 01:50:25;;;;;;;19.70;15.40;;;;;;;2.56;100.00;100850.76;105837;1257;60521;-76
2023/12/30 01:52:52;;;;;;;19.50;15.30;;;;;;;2.54;100.00;100848.89;105986;1254;73749;-74
2023/12/30 01:55:19;;;;;;;19.50;14.00;;;;;;;2.52;100.00;100848.94;105980;1254;63629;-76
2023/12/30 01:57:47;;;;;;;27.90;19.40;;;;;;;2.51;100.00;100848.44;105930;1256;72493;-77
2023/12/30 02:00:19;;;;;;;19.80;14.50;;;;;;;2.49;100.00;100847.11;106044;1257;60405;-77
2023/12/30 02:02:47;;;;;;;23.40;15.30;;;;;;;2.48;100.00;100845.24;105943;1251;60607;-77
2023/12/30 02:05:14;;;;;;;22.80;15.00;;;;;;;2.48;100.00;100841.79;106015;1257;73636;-78
2023/12/30 02:07:46;;;;;;;19.00;14.80;;;;;;;2.51;100.00;100836.38;106088;1254;63908;-76
2023/12/30 02:10:13;;;;;;;22.70;15.10;;;;;;;2.54;100.00;100834.91;105994;1250;71635;-77
2023/12/30 02:12:40;;;;;;;21.00;14.50;;;;;;;2.58;100.00;100831.55;106029;1256;61253;-76
2023/12/30 02:15:14;;;;;;;20.10;14.60;;;;;;;2.62;100.00;100832.84;105953;1257;60447;-74
2023/12/30 02:17:41;;;;;;;27.70;17.50;;;;;;;2.67;100.00;100836.50;106041;1251;73862;-76
2023/12/30 02:20:09;;;;;;;19.70;14.80;;;;;;;2.72;100.00;100834.84;106024;1255;63844;-76
2023/12/30 02:22:45;;;;;;;19.50;14.50;;;;;;;2.77;100.00;100832.64;105809;1256;72773;-77
2023/12/30 02:25:13;;;;;;;20.70;14.10;;;;;;;2.81;100.00;100835.83;106079;1251;60511;-77
2023/12/30 02:27:44;;;;;;;17.70;12.40;;;;;;;2.84;100.00;100836.95;106067;1251;60524;-75
2023/12/30 02:30:11;;;;;;;22.20;14.10;;;;;;;2.85;100.00;100839.19;105951;1255;72126;-77
2023/12/30 02:32:38;;;;;;;19.60;13.80;;;;;;;2.86;100.00;100842.80;106015;1257;63832;-79
2023/12/30 02:35:06;;;;;;;15.00;11.70;;;;;;;2.88;100.00;100838.42;105963;1251;72707;-77
2023/12/30 02:37:34;;;;;;;19.00;13.30;;;;;;;2.92;100.00;100836.78;105851;1251;61152;-78
2023/12/30 02:40:01;;;;;;;18.10;12.40;;;;;;;2.97;100.00;100841.14;106010;1255;60398;-77
2023/12/30 02:42:28;;;;;;;15.60;11.90;;;;;;;3.03;100.00;100839.79;105919;1256;73805;-79
2023/12/30 02:44:55;;;;;;;15.90;11.40;;;;;;;3.09;100.00;100838.05;106016;1254;63924;-80
2023/12/30 02:47:23;;;;;;;16.60;12.00;;;;;;;3.16;100.00;100838.22;105962;1251;72551;-77
2023/12/30 02:49:51;;;;;;;14.60;10.90;;;;;;;3.23;100.00;100835.10;105984;1257;60539;-78
2023/12/30 02:52:18;;;;;;;13.30;10.80;;;;;;;3.29;100.00;100831.67;105955;1254;60539;-77
2023/12/30 02:54:46;;;;;;;16.30;10.90;;;;;;;3.36;100.00;100830.11;105819;1256;73690;-78
2023/12/30 02:57:13;;;;;;;17.10;12.20;;;;;;;3.41;100.00;100832.57;105939;1257;63883;-78
2023/12/30 02:59:40;;;;;;;17.00;13.20;;;;;;;3.45;100.00;100830.39;106106;1256;72857;-76
2023/12/30 03:02:07;;;;;;;16.60;12.60;;;;;;;3.49;100.00;100833.05;106032;1254;61335;-78
2023/12/30 03:04:34;;;;;;;17.60;13.30;;;;;;;3.52;100.00;100837.63;106009;1251;61105;-75
2023/12/30 03:07:01;;;;;;;19.90;13.90;;;;;;;3.50;100.00;100847.86;105886;1255;73805;-78
2023/12/30 03:09:29;;;;;;;16.40;12.40;;;;;;;3.46;100.00;100846.95;105869;1251;62283;-79
2023/12/30 03:11:55;;;;;;;16.60;12.80;;;;;;;3.40;100.00;100852.48;105944;1251;71111;-80
2023/12/30 03:14:22;;;;;;;18.50;13.10;;;;;;;3.34;100.00;100850.38;105911;1257;61126;-77
2023/12/30 03:16:49;;;;;;;18.50;12.90;;;;;;;3.28;100.00;100851.05;105985;1251;60530;-78
2023/12/30 03:19:16;;;;;;;21.90;14.40;;;;;;;3.24;100.00;100852.21;106008;1254;73962;-80
2023/12/30 03:21:45;;;;;;;16.90;13.60;;;;;;;3.18;100.00;100858.73;106049;1257;63894;-79
2023/12/30 03:24:12;;;;;;;17.50;12.80;;;;;;;3.15;100.00;100855.88;105945;1255;72713;-76
2023/12/30 03:26:39;;;;;;;18.30;13.60;;;;;;;3.12;100.00;100853.20;106044;1254;60316;-78
2023/12/30 03:29:05;;;;;;;20.30;14.30;;;;;;;3.10;100.00;100853.42;106020;1251;60450;-77
2023/12/30 03:31:33;;;;;;;18.80;13.90;;;;;;;3.09;100.00;100854.82;105933;1254;73909;-78
2023/12/30 03:34:00;;;;;;;20.60;13.60;;;;;;;3.08;100.00;100854.31;105915;1251;63679;-75
2023/12/30 03:36:27;;;;;;;15.90;12.90;;;;;;;3.08;100.00;100857.61;105984;1251;72559;-79
2023/12/30 03:38:54;;;;;;;19.80;13.90;;;;;;;3.06;100.00;100864.73;105942;1257;61180;-79
2023/12/30 03:41:22;;;;;;;20.10;15.00;;;;;;;3.04;100.00;100869.48;106776;1250;60290;-75
2023/12/30 03:43:49;;;;;;;22.30;15.00;;;;;;;3.01;100.00;100879.73;107258;1251;73634;-79
2023/12/30 03:46:16;;;;;;;22.10;15.00;;;;;;;3.00;100.00;100888.38;106099;1260;62291;-77
2023/12/30 03:48:43;;;;;;;19.60;13.60;;;;;;;2.98;100.00;100888.94;105874;1256;72657;-80
2023/12/30 03:51:10;;;;;;;19.10;14.20;;;;;;;2.97;100.00;100885.17;105920;1255;61207;-80
2023/12/30 03:53:36;;;;;;;21.00;14.70;;;;;;;2.95;100.00;100887.80;105986;1260;60412;-79
2023/12/30 03:56:04;;;;;;;22.40;15.30;;;;;;;2.93;100.00;100890.45;105979;1254;72434;-80
2023/12/30 03:58:30;;;;;;;20.60;15.40;;;;;;;2.91;100.00;100894.83;106009;1256;64363;-79
2023/12/30 04:00:57;;;;;;;21.60;14.70;;;;;;;2.88;100.00;100892.30;106050;1251;72386;-76
2023/12/30 04:03:24;;;;;;;20.60;15.10;;;;;;;2.86;100.00;100891.65;105997;1251;60956;-75
2023/12/30 04:05:51;;;;;;;19.70;16.00;;;;;;;2.84;100.00;100893.08;106103;1252;60428;-80
2023/12/30 04:08:18;;;;;;;20.50;16.60;;;;;;;2.82;100.00;100894.33;105943;1254;73919;-78
2023/12/30 04:10:44;;;;;;;25.70;18.00;;;;;;;2.81;100.00;100891.59;105886;1256;62566;-80
2023/12/30 04:13:11;;;;;;;24.50;18.20;;;;;;;2.80;100.00;100889.04;106114;1254;72493;-79
2023/12/30 04:15:38;;;;;;;21.60;17.90;;;;;;;2.79;100.00;100886.63;105877;1257;61087;-77
2023/12/30 04:18:05;;;;;;;21.60;17.20;;;;;;;2.77;100.00;100880.46;105941;1251;60533;-76
2023/12/30 04:20:32;;;;;;;25.30;17.30;;;;;;;2.75;100.00;100885.51;106058;1257;73977;-79
2023/12/30 04:22:59;;;;;;;24.20;18.00;;;;;;;2.75;100.00;100886.05;106014;1254;63772;-78
2023/12/30 04:25:27;;;;;;;22.30;18.00;;;;;;;2.74;100.00;100885.20;106111;1251;72710;-78
2023/12/30 04:27:55;;;;;;;26.10;18.10;;;;;;;2.74;100.00;100886.23;105966;1253;60531;-79
2023/12/30 04:30:22;;;;;;;29.10;21.60;;;;;;;2.75;100.00;100890.71;106297;1251;60456;-78
2023/12/30 04:32:48;;;;;;;26.60;18.60;;;;;;;2.75;100.00;100891.05;106176;1251;73632;-76
2023/12/30 04:35:15;;;;;;;27.80;17.70;;;;;;;2.75;100.00;100892.25;106037;1254;63762;-77
2023/12/30 04:37:43;;;;;;;25.20;18.40;;;;;;;2.75;100.00;100892.09;106046;1251;72814;-79
2023/12/30 04:40:10;;;;;;;25.40;17.40;;;;;;;2.74;100.00;100895.90;106065;1253;60539;-78
2023/12/30 04:42:37;;;;;;;24.90;17.90;;;;;;;2.75;100.00;100897.95;105996;1251;60536;-79
2023/12/30 04:45:04;;;;;;;23.30;17.30;;;;;;;2.75;100.00;100901.90;105951;1251;73668;-79
2023/12/30 04:47:32;;;;;;;25.20;17.80;;;;;;;2.76;100.00;100910.70;106005;1254;63821;-78
2023/12/30 04:49:59;;;;;;;21.90;16.60;;;;;;;2.77;100.00;100915.67;106035;1251;72567;-78
2023/12/30 04:52:27;;;;;;;26.30;18.30;;;;;;;2.77;100.00;100915.35;106060;1254;61204;-78
2023/12/30 04:54:53;;;;;;;24.10;16.80;;;;;;;2.75;100.00;100912.97;105949;1257;60447;-78
2023/12/30 04:57:20;;;;;;;21.50;17.10;;;;;;;2.73;100.00;100916.13;106007;1251;73687;-79
2023/12/30 04:59:47;;;;;;;24.40;17.10;;;;;;;2.71;100.00;100922.21;106053;1254;63932;-78
2023/12/30 05:02:14;;;;;;;24.90;16.40;;;;;;;2.69;100.00;100921.73;106068;1251;71662;-79
2023/12/30 05:04:43;;;;;;;21.80;17.50;;;;;;;2.68;100.00;100915.89;105773;1251;61309;-78
2023/12/30 05:07:10;;;;;;;22.00;16.40;;;;;;;2.66;100.00;100914.89;106046;1256;59474;-80
2023/12/30 05:09:37;;;;;;;28.70;18.10;;;;;;;2.65;100.00;100916.47;106055;1251;73805;-76
2023/12/30 05:12:05;;;;;;;23.80;17.70;;;;;;;2.65;100.00;100910.27;106067;1251;63740;-80
2023/12/30 05:14:31;;;;;;;24.20;16.60;;;;;;;2.64;100.00;100909.06;105981;1251;72671;-79
2023/12/30 05:16:58;;;;;;;25.90;18.60;;;;;;;2.64;100.00;100899.25;105960;1257;60431;-79
2023/12/30 05:19:25;;;;;;;23.30;17.30;;;;;;;2.61;100.00;100897.39;105999;1254;60453;-81
2023/12/30 05:21:53;;;;;;;24.80;17.90;;;;;;;2.61;100.00;100904.50;106018;1251;73883;-80
2023/12/30 05:24:20;;;;;;;28.10;18.90;;;;;;;2.61;100.00;100903.64;106241;1255;63839;-80
2023/12/30 05:26:48;;;;;;;32.10;19.80;;;;;;;2.61;100.00;100902.75;106039;1254;71202;-80
2023/12/30 05:29:16;;;;;;;27.20;19.10;;;;;;;2.62;100.00;100900.84;106040;1254;61206;-80
2023/12/30 05:31:43;;;;;;;30.00;19.30;;;;;;;2.63;100.00;100900.11;105973;1251;60444;-79
2023/12/30 05:34:09;;;;;;;26.90;18.90;;;;;;;2.64;100.00;100904.58;105940;1254;73811;-81
2023/12/30 05:36:38;;;;;;;28.30;18.30;;;;;;;2.65;100.00;100903.16;106106;1254;62541;-81
2023/12/30 05:39:04;;;;;;;24.80;16.90;;;;;;;2.66;100.00;100905.39;106110;1254;72466;-80
2023/12/30 05:41:31;;;;;;;26.00;17.60;;;;;;;2.68;100.00;100910.37;106182;1254;61198;-79
2023/12/30 05:43:58;;;;;;;30.50;19.60;;;;;;;2.69;100.00;100910.67;106021;1254;60340;-81
2023/12/30 05:46:26;;;;;;;28.80;18.00;;;;;;;2.70;100.00;100911.88;105988;1252;73819;-81
2023/12/30 05:48:53;;;;;;;24.60;17.50;;;;;;;2.71;100.00;100914.09;106048;1254;63632;-78
2023/12/30 05:51:20;;;;;;;25.50;17.60;;;;;;;2.73;100.00;100917.50;105883;1251;72685;-79
2023/12/30 05:53:50;;;;;;;28.20;18.80;;;;;;;2.75;100.00;100917.13;106058;1254;61188;-77
2023/12/30 05:56:26;;;;;;;26.20;17.10;;;;;;;2.77;100.00;100920.01;106090;1251;60452;-78
2023/12/30 05:58:54;;;;;;;23.70;17.40;;;;;;;2.78;100.00;100918.77;106073;1254;73126;-80
2023/12/30 06:01:22;;;;;;;27.60;17.20;;;;;;;2.80;100.00;100926.14;106050;1254;63896;-79
2023/12/30 06:03:49;;;;;;;46.60;26.40;;;;;;;2.82;100.00;100922.13;106034;1251;71638;-79
2023/12/30 06:06:16;;;;;;;36.20;21.60;;;;;;;2.83;100.00;100921.77;105977;1254;60976;-79
2023/12/30 06:08:43;;;;;;;31.30;18.10;;;;;;;2.83;100.00;100924.88;105930;1255;60338;-79
2023/12/30 06:11:13;;;;;;;25.20;18.00;;;;;;;2.84;100.00;100928.45;106032;1251;73629;-80
2023/12/30 06:13:41;;;;;;;27.90;17.90;;;;;;;2.85;100.00;100932.93;106087;1254;63628;-79
2023/12/30 06:16:08;;;;;;;26.40;18.10;;;;;;;2.87;100.00;100934.27;106051;1251;72660;-81
2023/12/30 06:18:37;;;;;;;30.80;20.10;;;;;;;2.91;100.00;100936.77;105820;1257;60906;-81
2023/12/30 06:21:04;;;;;;;27.80;18.20;;;;;;;2.96;100.00;100935.29;106003;1251;60435;-80
2023/12/30 06:23:32;;;;;;;24.70;18.30;;;;;;;2.99;100.00;100934.16;105866;1255;73987;-79
2023/12/30 06:26:01;;;;;;;29.60;20.20;;;;;;;3.04;100.00;100930.09;106084;1251;63560;-79
2023/12/30 06:28:28;;;;;;;27.70;19.50;;;;;;;3.08;100.00;100924.82;106022;1251;72577;-79
2023/12/30 06:30:55;;;;;;;23.20;17.20;;;;;;;3.12;100.00;100926.77;106068;1254;60416;-80
2023/12/30 06:33:23;;;;;;;28.30;18.50;;;;;;;3.17;100.00;100930.98;106014;1251;60415;-80
2023/12/30 06:35:50;;;;;;;27.50;18.00;;;;;;;3.22;100.00;100927.06;106094;1251;72507;-80
2023/12/30 06:38:20;;;;;;;26.10;18.60;;;;;;;3.26;100.00;100929.53;106105;1254;63761;-78
2023/12/30 06:40:47;;;;;;;25.30;17.10;;;;;;;3.32;100.00;100928.88;105936;1251;71113;-81
2023/12/30 06:43:14;;;;;;;24.70;18.10;;;;;;;3.39;100.00;100929.91;105989;1254;61163;-81
2023/12/30 06:45:41;;;;;;;23.40;17.00;;;;;;;3.46;100.00;100928.54;106006;1254;60427;-81
2023/12/30 06:48:09;;;;;;;27.80;17.60;;;;;;;3.52;100.00;100930.11;106022;1254;73872;-79
2023/12/30 06:50:36;;;;;;;22.00;17.10;;;;;;;3.58;100.00;100931.50;106040;1251;62972;-81
2023/12/30 06:53:03;;;;;;;23.20;16.70;;;;;;;3.63;100.00;100935.36;106045;1254;72473;-80
2023/12/30 06:55:31;;;;;;;28.90;18.40;;;;;;;3.69;100.00;100943.85;106023;1254;60636;-80
2023/12/30 06:58:08;;;;;;;29.80;18.40;;;;;;;3.75;100.00;100941.60;105926;1251;60415;-78
2023/12/30 07:00:35;;;;;;;27.80;17.60;;;;;;;3.82;100.00;100945.73;105999;1251;73787;-79
2023/12/30 07:03:03;;;;;;;24.20;18.20;;;;;;;3.89;100.00;100946.05;105949;1251;62935;-79
2023/12/30 07:05:35;;;;;;;22.50;16.50;;;;;;;3.96;100.00;100946.77;106076;1251;71504;-80
2023/12/30 07:08:02;;;;;;;23.10;17.00;;;;;;;4.02;100.00;100946.58;106017;1254;61020;-80
2023/12/30 07:10:29;;;;;;;23.00;16.30;;;;;;;4.07;100.00;100947.14;106093;1250;60532;-78
2023/12/30 07:12:56;;;;;;;29.00;18.60;;;;;;;4.11;100.00;100944.27;106038;1251;73833;-79
2023/12/30 07:15:23;;;;;;;29.10;17.10;;;;;;;4.15;100.00;100943.45;106204;1251;62352;-79
2023/12/30 07:17:50;;;;;;;26.00;16.30;;;;;;;4.17;100.00;100941.66;105967;1254;72611;-80
2023/12/30 07:20:17;;;;;;;23.60;17.10;;;;;;;4.20;100.00;100943.49;106020;1251;61106;-81
2023/12/30 07:22:44;;;;;;;24.40;16.00;;;;;;;4.20;100.00;100940.72;106039;1251;60542;-79
2023/12/30 07:25:12;;;;;;;26.20;16.40;;;;;;;4.20;100.00;100939.51;105983;1254;73813;-80
2023/12/30 07:27:39;;;;;;;22.80;16.40;;;;;;;4.22;100.00;100940.13;106095;1251;63726;-80
2023/12/30 07:30:06;;;;;;;20.70;15.50;;;;;;;4.25;100.00;100939.87;106073;1251;72577;-80
2023/12/30 07:32:34;;;;;;;21.80;15.70;;;;;;;4.28;100.00;100941.70;106085;1257;61148;-81
2023/12/30 07:35:03;;;;;;;20.10;15.50;;;;;;;4.31;100.00;100935.04;106006;1251;60589;-81
2023/12/30 07:37:30;;;;;;;23.30;16.40;;;;;;;4.36;100.00;100941.65;106062;1250;73674;-79
2023/12/30 07:39:59;;;;;;;22.50;15.30;;;;;;;4.41;100.00;100944.63;105967;1254;64340;-81
2023/12/30 07:42:26;;;;;;;24.50;17.10;;;;;;;4.44;100.00;100943.15;106047;1254;72518;-80
2023/12/30 07:44:53;;;;;;;21.10;15.70;;;;;;;4.47;100.00;100942.73;106023;1254;60539;-80
2023/12/30 07:47:20;;;;;;;22.40;16.20;;;;;;;4.48;100.00;100947.17;106004;1251;60411;-81
2023/12/30 07:52:46;;;;;;;29.40;18.40;;;;;;;4.52;100.00;100950.86;102484;1295;603772;-80
2023/12/30 07:55:13;;;;;;;24.20;17.00;;;;;;;4.54;100.00;100947.85;104969;1266;59632;-80
2023/12/30 07:57:40;;;;;;;22.90;16.10;;;;;;;4.57;100.00;100950.02;105034;1269;59360;-78
2023/12/30 08:00:08;;;;;;;24.10;16.90;;;;;;;4.59;100.00;100951.54;104879;1264;72145;-79
2023/12/30 08:02:38;;;;;;;23.70;18.50;;;;;;;4.62;100.00;100954.05;104965;1269;63669;-82
2023/12/30 08:05:05;;;;;;;22.40;16.10;;;;;;;4.66;100.00;100955.82;105414;1257;197410;-81
2023/12/30 08:07:32;;;;;;;22.00;16.40;;;;;;;4.69;100.00;100954.36;105829;1257;60875;-79
2023/12/30 08:10:00;;;;;;;23.80;16.10;;;;;;;4.71;100.00;100955.30;105764;1253;60440;-81
2023/12/30 08:12:28;;;;;;;22.90;16.70;;;;;;;4.75;100.00;100960.73;105865;1257;72243;-81
2023/12/30 08:14:55;;;;;;;22.80;18.00;;;;;;;4.78;100.00;100964.44;105789;1256;62855;-82
2023/12/30 08:17:22;;;;;;;24.50;19.00;;;;;;;4.82;100.00;100959.83;105813;1257;72658;-81
2023/12/30 08:19:48;;;;;;;23.00;17.00;;;;;;;4.88;100.00;100956.70;105774;1254;61249;-79
2023/12/30 08:22:15;;;;;;;26.70;17.60;;;;;;;4.94;100.00;100955.81;105961;1254;60227;-81
2023/12/30 08:24:43;;;;;;;26.60;18.90;;;;;;;5.00;100.00;100955.64;105755;1255;73179;-80
2023/12/30 08:27:11;;;;;;;24.60;18.20;;;;;;;5.06;100.00;100955.29;105825;1253;63740;-80
2023/12/30 08:29:38;;;;;;;21.90;16.80;;;;;;;5.13;100.00;100951.59;105825;1253;72727;-79
2023/12/30 08:32:06;;;;;;;21.20;16.50;;;;;;;5.23;100.00;100946.61;105884;1254;60013;-79
2023/12/30 08:34:33;;;;;;;24.10;17.60;;;;;;;5.32;100.00;100942.98;105822;1253;60319;-79
2023/12/30 08:37:05;;;;;;;23.80;17.90;;;;;;;5.41;100.00;100938.02;105765;1253;73885;-79
2023/12/30 08:39:32;;;;;;;21.40;16.40;;;;;;;5.51;100.00;100939.42;105806;1257;63966;-79
2023/12/30 08:41:59;;;;;;;29.50;18.50;;;;;;;5.61;100.00;100937.53;105710;1257;72793;-80
2023/12/30 08:44:26;;;;;;;24.90;18.40;;;;;;;5.72;100.00;100938.89;105706;1254;59732;-80
2023/12/30 08:46:53;;;;;;;24.80;17.60;;;;;;;5.83;100.00;100935.21;105768;1257;59677;-79
2023/12/30 08:49:21;;;;;;;25.50;16.80;;;;;;;5.94;100.00;100933.46;105766;1253;73189;-80
2023/12/30 08:51:47;;;;;;;22.70;16.60;;;;;;;6.06;100.00;100933.91;105700;1254;63979;-82
2023/12/30 08:54:15;;;;;;;25.70;17.10;;;;;;;6.15;100.00;100933.92;105865;1257;71258;-80
2023/12/30 08:56:42;;;;;;;21.60;15.70;;;;;;;6.24;100.00;100933.77;105970;1257;60092;-79
2023/12/30 08:59:09;;;;;;;24.80;15.40;;;;;;;6.32;100.00;100931.73;105830;1254;60340;-80
2023/12/30 09:01:37;;;;;;;21.70;15.90;;;;;;;6.41;100.00;100931.89;105747;1254;73010;-78
2023/12/30 09:04:04;;;;;;;23.00;17.40;;;;;;;6.52;100.00;100928.36;105782;1257;63914;-79
2023/12/30 09:06:32;;;;;;;23.80;16.60;;;;;;;6.64;100.00;100928.96;105669;1257;72502;-79
2023/12/30 09:08:59;;;;;;;25.00;17.30;;;;;;;6.74;100.00;100928.73;105774;1256;61252;-80
2023/12/30 09:11:26;;;;;;;21.90;16.50;;;;;;;6.82;100.00;100925.10;105767;1254;59833;-80
2023/12/30 09:13:53;;;;;;;24.40;15.40;;;;;;;6.92;100.00;100926.98;105683;1259;72861;-79
2023/12/30 09:16:20;;;;;;;21.50;14.00;;;;;;;7.01;100.00;100922.27;105767;1255;63751;-79
2023/12/30 09:18:47;;;;;;;23.30;15.90;;;;;;;7.09;100.00;100918.30;105700;1253;70433;-80
2023/12/30 09:21:14;;;;;;;21.30;15.50;;;;;;;7.14;100.00;100916.35;105751;1257;60988;-81
2023/12/30 09:23:41;;;;;;;17.20;13.40;;;;;;;7.22;100.00;100909.61;105801;1256;60006;-79
2023/12/30 09:26:09;;;;;;;27.30;14.10;;;;;;;7.31;100.00;100902.81;105744;1253;72808;-82
2023/12/30 09:28:36;;;;;;;20.80;13.60;;;;;;;7.40;100.00;100906.77;105676;1256;63830;-79
2023/12/30 09:31:03;;;;;;;17.50;13.30;;;;;;;7.47;100.00;100904.71;105747;1253;72655;-78
2023/12/30 09:33:30;;;;;;;19.60;13.80;;;;;;;7.54;100.00;100898.70;105905;1253;61484;-80
2023/12/30 09:35:57;;;;;;;16.60;12.80;;;;;;;7.58;100.00;100895.91;105748;1254;59733;-79
2023/12/30 09:38:24;;;;;;;16.70;12.70;;;;;;;7.60;100.00;100890.44;105571;1259;72110;-81
2023/12/30 09:40:54;;;;;;;18.20;13.00;;;;;;;7.59;100.00;100890.47;105680;1253;62474;-80
2023/12/30 09:43:25;;;;;;;18.20;13.90;;;;;;;7.60;100.00;100888.86;105769;1254;72417;-80
2023/12/30 09:45:54;;;;;;;16.80;12.80;;;;;;;7.61;100.00;100885.87;105843;1257;61123;-80
2023/12/30 09:48:25;;;;;;;19.50;13.90;;;;;;;7.60;100.00;100882.59;105860;1253;60190;-79
2023/12/30 09:50:53;;;;;;;20.20;15.20;;;;;;;7.60;100.00;100885.39;105885;1255;73063;-81
2023/12/30 09:53:22;;;;;;;33.20;16.60;;;;;;;7.60;100.00;100878.79;105890;1253;63793;-79
2023/12/30 09:55:51;;;;;;;25.00;16.30;;;;;;;7.63;100.00;100881.08;105975;1254;71404;-81
2023/12/30 09:58:18;;;;;;;20.30;13.60;;;;;;;7.65;100.00;100887.44;105942;1253;61287;-79
2023/12/30 10:00:45;;;;;;;21.40;13.80;;;;;;;7.66;100.00;100883.55;105867;1254;60216;-80
2023/12/30 10:03:14;;;;;;;19.90;13.40;;;;;;;7.68;100.00;100879.13;105803;1253;71730;-79
2023/12/30 10:05:41;;;;;;;24.00;14.80;;;;;;;7.70;100.00;100875.02;105932;1253;63862;-78
2023/12/30 10:08:07;;;;;;;19.00;13.80;;;;;;;7.74;100.00;100876.09;105949;1254;72727;-76
2023/12/30 10:10:46;;;;;;;18.70;14.20;;;;;;;7.78;100.00;100868.95;105652;1253;59911;-79
2023/12/30 10:13:14;;;;;;;21.80;13.10;;;;;;;7.82;100.00;100867.37;106862;1251;60189;-79
2023/12/30 10:15:42;;;;;;;16.90;12.40;;;;;;;7.84;100.00;100863.27;105969;1250;71914;-80
2023/12/30 10:18:09;;;;;;;18.80;12.80;;;;;;;7.87;100.00;100854.27;105994;1250;63939;-79
2023/12/30 10:20:45;;;;;;;16.30;11.90;;;;;;;7.91;100.00;100851.30;106136;1251;71481;-79
2023/12/30 10:23:12;;;;;;;19.50;13.70;;;;;;;7.95;100.00;100846.41;106226;1251;61028;-80
2023/12/30 10:25:39;;;;;;;16.40;12.40;;;;;;;8.00;100.00;100844.64;106002;1257;60347;-81
2023/12/30 10:28:07;;;;;;;19.20;12.60;;;;;;;8.05;100.00;100842.13;106267;1250;71722;-80
2023/12/30 10:30:33;;;;;;;19.50;13.40;;;;;;;8.10;100.00;100842.60;106060;1251;63628;-79
2023/12/30 10:33:13;;;;;;;23.40;13.40;;;;;;;8.14;100.00;100836.70;106132;1255;72662;-79
2023/12/30 10:35:42;;;;;;;19.30;14.50;;;;;;;8.18;100.00;100831.42;106255;1250;60095;-78
2023/12/30 10:38:10;;;;;;;18.90;11.60;;;;;;;8.21;100.00;100826.55;106260;1250;60219;-78
2023/12/30 10:40:40;;;;;;;16.90;11.60;;;;;;;8.25;100.00;100824.97;106084;1254;73151;-80
2023/12/30 10:43:07;;;;;;;21.40;12.50;;;;;;;8.31;100.00;100820.40;106081;1250;62513;-81
2023/12/30 10:45:35;;;;;;;17.70;11.70;;;;;;;8.36;100.00;100819.98;106035;1254;72281;-80
2023/12/30 10:48:02;;;;;;;17.00;11.90;;;;;;;8.40;100.00;100815.61;106043;1250;59756;-80
2023/12/30 10:50:30;;;;;;;23.40;12.20;;;;;;;8.43;100.00;100813.92;105968;1251;60357;-80
2023/12/30 10:53:23;;;;;;;15.10;11.30;;;;;;;8.46;100.00;100813.43;106180;1250;73019;-79
2023/12/30 10:55:51;;;;;;;15.60;11.20;;;;;;;8.49;100.00;100810.67;106257;1257;62887;-78
2023/12/30 10:58:18;;;;;;;15.90;10.50;;;;;;;8.52;100.00;100808.95;106404;1250;72448;-80
2023/12/30 11:00:53;;;;;;;14.80;11.00;;;;;;;8.55;100.00;100805.51;106225;1250;59723;-78
2023/12/30 11:03:21;;;;;;;16.40;11.80;;;;;;;8.58;100.00;100796.98;106493;1250;59659;-79
2023/12/30 11:05:51;;;;;;;12.30;9.00;;;;;;;8.61;100.00;100795.44;106907;1250;72832;-78
2023/12/30 11:08:18;;;;;;;16.70;10.90;;;;;;;8.64;100.00;100793.70;107302;1251;62363;-77